• Join FlightAware (Why Join?)
  • Login
  • US Flag 
09:23PM EST


 

Airport Tracker/Info


-or-


 

Live Flight TrackerFlight Track Log ✈ EJA922 ✈ 25-Nov-2013 ✈ KAMA - KHOU

Flight Track Log - Related Links

Times and Time Zones

All times are in EST time to prevent confusion due to time zone crossing. See the EJA922 flight status page for this flight to view local times or setup timezone preferences in your user account.

Time Position Orientation Groundspeed Altitude Reporting Facility
EST Latitude Longitude Course Direction KTS MPH feet Rate Location/Type
02:59PM 35.2178 -101.6272 121° Southeast 243 280 8,400  Level Albuquerque Center
03:00PM 35.1667 -101.5472 128° Southeast 277 319 11,100 2,940 Climbing Albuquerque Center
03:01PM 35.1017 -101.4481 129° Southeast 361 415 14,500 3,120 Climbing Albuquerque Center
03:02PM 35.0372 -101.3497 129° Southeast 368 423 17,600 3,000 Climbing Albuquerque Center
03:03PM 34.9553 -101.2247 129° Southeast 387 445 20,700 2,580 Climbing Albuquerque Center
03:04PM 34.8910 -101.1653 121° Southeast  Level FlightAware Approximate
03:04PM 34.8822 -101.1139 129° Southeast 411 473 23,000  Level Albuquerque Center
03:05PM 34.8067 -101.0006 129° Southeast 426 490 25,900 2,400 Climbing Albuquerque Center
03:06PM 34.7303 -100.8844 129° Southeast 435 501 28,000 2,040 Climbing Albuquerque Center
03:07PM 34.6494 -100.7625 129° Southeast 454 522 30,100 1,980 Climbing Albuquerque Center
03:08PM 34.5675 -100.6417 129° Southeast 462 532 32,100 2,040 Climbing Albuquerque Center
03:09PM 34.4692 -100.4933 129° Southeast 469 540 34,400 1,380 Climbing Albuquerque Center
03:10PM 34.3808 -100.3703 131° Southeast 480 552 35,000 240 Climbing Albuquerque Center
03:11PM 34.2894 -100.2444 131° Southeast 493 567 35,000  Level Albuquerque Center
03:12PM 34.2111 -100.1394 132° Southeast 496 571 35,000  Level Fort Worth Center
03:13PM 34.1047 -99.9903 131° Southeast 489 563 35,000  Level Fort Worth Center
03:15PM 34.0133 -99.8692 132° Southeast 487 560 35,000  Level Fort Worth Center
03:16PM 33.9242 -99.7456 131° Southeast 487 560 35,000  Level Fort Worth Center
03:17PM 33.8358 -99.6236 131° Southeast 483 556 35,000  Level Fort Worth Center
03:18PM 33.7458 -99.5025 132° Southeast 483 556 35,000  Level Fort Worth Center
03:19PM 33.6569 -99.3825 132° Southeast 481 554 35,000  Level Fort Worth Center
03:20PM 33.5689 -99.2628 131° Southeast 476 548 35,000  Level Fort Worth Center
03:21PM 33.4797 -99.1419 131° Southeast 480 552 35,000  Level Fort Worth Center
03:22PM 33.3719 -98.9994 132° Southeast 479 551 35,000  Level Fort Worth Center
03:23PM 33.2828 -98.8789 131° Southeast 482 555 35,000  Level Fort Worth Center
03:24PM 33.1925 -98.7583 132° Southeast 482 555 35,000  Level Fort Worth Center
03:25PM 33.1019 -98.6383 132° Southeast 483 556 35,000  Level Fort Worth Center
03:26PM 33.0106 -98.5203 133° Southeast 483 556 35,000  Level Fort Worth Center
03:27PM 32.9103 -98.3881 132° Southeast 484 557 35,000  Level Fort Worth Center
03:28PM 32.8206 -98.2703 132° Southeast 482 555 35,000  Level Fort Worth Center
03:29PM 32.7306 -98.1525 132° Southeast 485 558 35,000  Level Fort Worth Center
03:30PM 32.6411 -98.0339 132° Southeast 483 556 35,000  Level Fort Worth Center
03:31PM 32.5489 -97.9156 133° Southeast 490 564 35,000  Level Fort Worth Center
03:32PM 32.4589 -97.7964 132° Southeast 490 564 35,000  Level Fort Worth Center
03:33PM 32.3475 -97.6536 133° Southeast 494 568 35,000  Level Fort Worth Center
03:34PM 32.2558 -97.5347 132° Southeast 494 568 35,000  Level Fort Worth Center
03:35PM 32.1625 -97.4150 133° Southeast 497 572 35,000  Level Fort Worth Center
03:36PM 32.0686 -97.2936 132° Southeast 502 578 35,000  Level Fort Worth Center
03:37PM 31.9750 -97.1758 133° Southeast 498 573 35,000  Level Fort Worth Center
03:38PM 31.8689 -97.0428 133° Southeast 488 562 35,000  Level Fort Worth Center
03:39PM 31.7756 -96.9236 133° Southeast 487 560 35,000  Level Fort Worth Center
03:40PM 31.6683 -96.8361 145° Southeast 459 528 35,000  Level Fort Worth Center
03:41PM 31.5500 -96.8119 170° South 429 494 35,000  Level Fort Worth Center
03:42PM 31.4311 -96.7944 173° South 425 489 35,000  Level Fort Worth Center
03:43PM 31.3111 -96.7747 172° South 428 493 35,000 -1,080 Level Fort Worth Center
03:44PM 31.1925 -96.7550 172° South 424 488 32,900 -2,100 Descending Fort Worth Center
03:45PM 31.0803 -96.7383 173° South 405 466 30,800 -2,040 Descending Fort Worth Center
03:46PM 30.9728 -96.7211 172° South 389 448 28,800 -2,040 Descending Fort Worth Center
03:47PM 30.8661 -96.7033 172° South 382 440 26,700 -2,100 Descending Fort Worth Center
03:48PM 30.7542 -96.6875 173° South 395 455 24,500 -2,160 Descending Fort Worth Center
03:49PM 30.6406 -96.6678 172° South 405 466 22,300 -2,220 Descending Fort Worth Center
03:50PM 30.5375 -96.6064 153° Southeast 425 489 20,000 -2,160 Descending Fort Worth Center
03:52PM 30.4586 -96.5125 134° Southeast 408 470 17,900 -2,160 Descending Fort Worth Center
03:53PM 30.3722 -96.4061 133° Southeast 390 449 15,600 -2,160 Descending Fort Worth Center
03:54PM 30.2992 -96.3192 134° Southeast 379 436 13,500 -2,040 Descending Fort Worth Center
03:55PM 30.2275 -96.2339 134° Southeast 370 426 11,500 -1,200 Descending Fort Worth Center
03:56PM 30.1469 -96.1744 147° Southeast 342 394 11,100 -360 Descending Fort Worth Center
03:56PM 30.1139 -96.1567 155° Southeast 333 383 11,000 -120 Descending Houston Center
03:57PM 30.0322 -96.1142 156° South 308 354 11,000 -120 Level Houston Center
03:57PM 30.0322 -96.1125 90° East 325 374 10,900  Descending Houston Center
03:58PM 29.9550 -96.0725 156° South 308 354 11,000  Climbing Houston Center
03:58PM 29.9542 -96.0722 164° South 310 357 10,900  Descending Houston Center
03:59PM 29.8783 -96.0331 156° South 301 346 11,000 60 Climbing Houston Center
03:59PM 29.8778 -96.0311 108° East 304 350 11,000  Level Houston Center
04:00PM 29.8239 -95.9644 133° Southeast 286 329 11,000  Level Houston Center
04:00PM 29.8200 -95.9583 126° Southeast 293 337 11,000  Level Houston Center
04:01PM 29.7700 -95.8894 130° Southeast 282 325 11,000 -300 Level Houston Center
04:02PM 29.7064 -95.8014 130° Southeast 297 342 10,500 -960 Descending Houston Center
04:03PM 29.6592 -95.7381 131° Southeast 294 338 9,200 -1,560 Descending Houston Center
04:03PM 29.6542 -95.7292 123° Southeast 295 339 8,900 -1,200 Descending Houston Center
04:04PM 29.6139 -95.6761 131° Southeast 224 258 8,000 -1,020 Descending Houston Center
04:04PM 29.6094 -95.6683 123° Southeast 256 295 7,900 -1,500 Descending Houston Center
04:05PM 29.5733 -95.6208 131° Southeast 223 257 6,500 -1,500 Descending Houston Center
04:05PM 29.5708 -95.6158 120° Southeast 223 257 6,400 -1,200 Descending Houston Center
04:06PM 29.5447 -95.5619 119° Southeast 202 232 5,300 -1,080 Descending Houston Center
04:06PM 29.5450 -95.5575 86° East 213 245 5,300 -1,440 Level Houston Center
04:07PM 29.5364 -95.4931 99° East 204 235 3,700 -1,500 Descending Houston Center
04:07PM 29.5364 -95.4950 270° West 201 231 3,800 -1,140 Climbing Houston Center
04:08PM 29.5331 -95.4311 93° East 208 239 2,700 -1,500 Descending Houston Center
04:08PM 29.5342 -95.4153 85° East 207 238 2,300 -660 Descending Houston Center
04:09PM 29.5592 -95.3728 56° Northeast 172 198 2,000 -300 Descending Houston Center
04:09PM 29.5631 -95.3681 47° Northeast 194 223 2,000 -360 Level Houston Center
04:10PM 29.5878 -95.3428 42° Northeast 108 124 1,600 -420 Descending Houston Center
04:11PM 29.5883 -95.3406 74° East 155 178 1,600 -600 Level Houston Center
04:11PM 29.6031 -95.3267 39° Northeast 110 127 1,200 -600 Descending Houston Center
04:12PM 29.6103 -95.3158 53° Northeast 128 147 1,000 -720 Descending Houston Center
04:12PM 29.6336 -95.2917 42° Northeast 117 135 300 -720 Descending Houston Center
04:13PM 29.6336 -95.2903 90° East 119 137 300 -180 Level Houston Center
04:14PM 29.6567 -95.2658 43° Northeast 118 136 100 -240 Descending Houston Center